createdAt,value
2019-01-04T00:00:37.602Z,15.47
2019-01-04T00:03:07.084Z,17.40
2019-01-04T00:05:36.868Z,14.03
2019-01-04T00:08:07.248Z,18.47
2019-01-04T00:10:38.577Z,17.30
2019-01-04T00:13:07.792Z,15.10
2019-01-04T00:15:37.256Z,21.23
2019-01-04T00:18:06.659Z,14.83
2019-01-04T00:20:36.264Z,21.07
2019-01-04T00:23:05.871Z,15.43
2019-01-04T00:25:35.321Z,16.33
2019-01-04T00:28:04.687Z,16.70
2019-01-04T00:30:34.432Z,15.17
2019-01-04T00:33:03.869Z,19.10
2019-01-04T00:35:33.303Z,18.73
2019-01-04T00:38:02.753Z,14.67
2019-01-04T00:40:32.237Z,19.27
2019-01-04T00:43:01.731Z,18.57
2019-01-04T00:45:31.197Z,17.50
2019-01-04T00:48:00.605Z,13.43
2019-01-04T00:50:30.136Z,17.27
2019-01-04T00:52:59.591Z,13.27
2019-01-04T00:56:08.771Z,12.40
2019-01-04T00:59:15.539Z,13.63
2019-01-04T01:02:18.861Z,12.23
2019-01-04T01:05:33.614Z,12.17
2019-01-04T01:08:31.955Z,14.30
2019-01-04T01:11:44.321Z,11.90
2019-01-04T01:14:53.650Z,15.30
2019-01-04T01:18:15.100Z,10.83
2019-01-04T01:21:25.015Z,13.73
2019-01-04T01:24:36.783Z,10.10
2019-01-04T01:27:50.396Z,14.50
2019-01-04T01:31:02.157Z,10.13
2019-01-04T01:34:07.579Z,12.97
2019-01-04T01:37:18.702Z,15.83
2019-01-04T01:40:41.184Z,9.60
2019-01-04T01:43:45.858Z,15.37
2019-01-04T01:46:36.368Z,13.30
2019-01-04T01:49:52.470Z,12.17
2019-01-04T01:52:26.248Z,11.30
2019-01-04T01:54:55.676Z,16.90
2019-01-04T01:57:25.140Z,10.40
2019-01-04T01:59:54.576Z,11.27
2019-01-04T02:02:24.094Z,11.80
2019-01-04T02:04:53.519Z,13.00
2019-01-04T02:07:22.916Z,12.83
2019-01-04T02:09:52.336Z,13.00
2019-01-04T02:12:21.795Z,11.33
2019-01-04T02:14:51.195Z,15.80
2019-01-04T02:17:20.612Z,13.83
2019-01-04T02:19:50.082Z,9.83
2019-01-04T02:22:19.800Z,11.13
2019-01-04T02:24:50.344Z,12.30
2019-01-04T02:27:19.711Z,9.53
2019-01-04T02:29:49.165Z,12.20
2019-01-04T02:32:18.616Z,8.23
2019-01-04T02:34:48.093Z,10.43
2019-01-04T02:37:17.500Z,11.30
2019-01-04T02:39:47.020Z,13.70
2019-01-04T02:42:16.860Z,10.20
2019-01-04T02:44:46.431Z,14.40
2019-01-04T02:47:15.868Z,11.63
2019-01-04T02:49:45.370Z,10.57
2019-01-04T02:52:14.811Z,13.90
2019-01-04T02:54:56.931Z,10.07
2019-01-04T02:57:26.381Z,14.30
2019-01-04T02:59:55.765Z,12.83
2019-01-04T03:02:25.241Z,13.30
2019-01-04T03:04:54.696Z,13.30
2019-01-04T03:07:24.397Z,10.30
2019-01-04T03:09:53.843Z,18.67
2019-01-04T03:12:23.244Z,15.37
2019-01-04T03:14:52.702Z,14.27
2019-01-04T03:17:22.149Z,15.27
2019-01-04T03:19:51.654Z,14.93
2019-01-04T03:22:21.109Z,16.03
2019-01-04T03:24:50.592Z,13.80
2019-01-04T03:27:20.107Z,13.67
2019-01-04T03:29:49.586Z,16.80
2019-01-04T03:32:19.351Z,14.67
2019-01-04T03:34:49.132Z,15.80
2019-01-04T03:37:18.913Z,19.47
2019-01-04T03:39:48.311Z,16.67
2019-01-04T03:42:18.162Z,15.43
2019-01-04T03:44:47.999Z,15.83
2019-01-04T03:47:17.553Z,17.37
2019-01-04T03:49:47.902Z,15.80
2019-01-04T03:52:20.756Z,13.37
2019-01-04T03:54:58.132Z,14.87
2019-01-04T03:57:27.156Z,18.17
2019-01-04T03:59:57.028Z,15.23
2019-01-04T04:02:26.482Z,18.93
2019-01-04T04:04:55.799Z,17.77
2019-01-04T04:07:25.251Z,18.23
2019-01-04T04:09:54.582Z,16.93
2019-01-04T04:12:24.010Z,20.03
2019-01-04T04:14:53.462Z,18.47
2019-01-04T04:17:24.381Z,17.03
2019-01-04T04:19:54.838Z,18.83
2019-01-04T04:22:25.495Z,18.77
2019-01-04T04:24:55.825Z,20.60
2019-01-04T04:27:25.932Z,23.83
2019-01-04T04:29:55.994Z,22.57
2019-01-04T04:32:25.984Z,22.97
2019-01-04T04:34:55.598Z,23.23
2019-01-04T04:37:26.009Z,22.53
2019-01-04T04:39:55.904Z,24.77
2019-01-04T04:42:26.084Z,21.10
2019-01-04T04:44:56.058Z,23.73
2019-01-04T04:47:26.323Z,20.57
2019-01-04T04:49:56.291Z,25.20
2019-01-04T04:52:25.955Z,23.73
2019-01-04T04:54:56.079Z,22.83
2019-01-04T04:57:25.863Z,22.57
2019-01-04T04:59:56.417Z,24.70
2019-01-04T05:02:26.568Z,24.10
2019-01-04T05:04:56.711Z,19.97
2019-01-04T05:07:27.287Z,22.37
2019-01-04T05:09:57.752Z,22.60
2019-01-04T05:12:27.727Z,22.63
2019-01-04T05:14:57.347Z,21.93
2019-01-04T05:17:27.406Z,23.13
2019-01-04T05:19:57.194Z,22.40
2019-01-04T05:22:27.255Z,28.23
2019-01-04T05:24:57.315Z,18.97
2019-01-04T05:27:27.679Z,20.33
2019-01-04T05:29:57.764Z,23.07
2019-01-04T05:32:28.360Z,24.03
2019-01-04T05:34:58.034Z,20.23
2019-01-04T05:37:28.011Z,21.03
2019-01-04T05:39:57.998Z,20.17
2019-01-04T05:42:27.990Z,19.13
2019-01-04T05:44:57.748Z,20.10
2019-01-04T05:47:27.793Z,16.57
2019-01-04T05:49:57.700Z,17.33
2019-01-04T05:52:27.989Z,20.03
2019-01-04T05:54:58.392Z,20.63
2019-01-04T05:57:28.700Z,20.80
2019-01-04T05:59:59.305Z,19.67
2019-01-04T06:02:29.664Z,16.87
2019-01-04T06:05:00.955Z,21.20
2019-01-04T06:07:31.310Z,20.50
2019-01-04T06:10:01.432Z,22.43
2019-01-04T06:12:31.848Z,21.10
2019-01-04T06:15:01.761Z,22.50
2019-01-04T06:17:31.999Z,22.97
2019-01-04T06:20:02.958Z,23.57
2019-01-04T06:22:33.010Z,24.13
2019-01-04T06:25:03.812Z,29.07
2019-01-04T06:27:34.072Z,18.97
2019-01-04T06:30:04.482Z,22.83
2019-01-04T06:32:34.967Z,22.07
2019-01-04T06:35:06.040Z,24.47
2019-01-04T06:37:36.131Z,23.77
2019-01-04T06:40:08.427Z,23.13
2019-01-04T06:42:38.920Z,25.00
2019-01-04T06:45:08.839Z,23.93
2019-01-04T06:47:39.212Z,27.85
2019-01-04T06:50:09.209Z,27.82
2019-01-04T06:52:38.976Z,25.03
2019-01-04T06:56:05.696Z,21.70
2019-01-04T06:58:35.119Z,26.40
2019-01-04T07:01:04.794Z,24.93
2019-01-04T07:03:34.190Z,28.00
2019-01-04T07:06:03.490Z,27.40
2019-01-04T07:08:32.846Z,32.28
2019-01-04T07:11:02.238Z,30.50
2019-01-04T07:13:31.634Z,24.63
2019-01-04T07:16:01.091Z,21.93
2019-01-04T07:18:31.744Z,28.63
2019-01-04T07:21:01.142Z,27.48
2019-01-04T07:23:30.766Z,27.47
2019-01-04T07:26:00.082Z,26.47
2019-01-04T07:28:29.398Z,25.07
2019-01-04T07:30:59.080Z,27.17
2019-01-04T07:33:28.458Z,28.35
2019-01-04T07:35:58.174Z,29.00
2019-01-04T07:38:27.599Z,27.73
2019-01-04T07:40:56.912Z,24.80
2019-01-04T07:43:26.370Z,26.33
2019-01-04T07:45:55.845Z,31.50
2019-01-04T07:48:25.281Z,27.27
2019-01-04T07:50:54.846Z,27.37
2019-01-04T07:53:24.246Z,29.43
2019-01-04T07:55:53.660Z,31.85
2019-01-04T07:58:25.022Z,29.50
2019-01-04T08:00:54.336Z,24.97
2019-01-04T08:03:26.051Z,27.10
2019-01-04T08:05:58.466Z,27.62
2019-01-04T08:08:27.906Z,29.67
2019-01-04T08:10:57.286Z,19.30
2019-01-04T08:13:29.277Z,24.37
2019-01-04T08:16:00.935Z,20.77
2019-01-04T08:18:30.443Z,17.80
2019-01-04T08:20:59.916Z,20.13
2019-01-04T08:23:29.630Z,19.57
2019-01-04T08:25:59.150Z,22.23
2019-01-04T08:28:28.479Z,16.43
2019-01-04T08:30:57.979Z,22.03
2019-01-04T08:33:27.406Z,22.07
2019-01-04T08:35:57.787Z,19.02
2019-01-04T08:38:27.438Z,19.30
2019-01-04T08:41:02.104Z,17.13
2019-01-04T08:43:31.873Z,14.60
2019-01-04T08:46:02.618Z,19.43
2019-01-04T08:48:33.083Z,18.13
2019-01-04T08:51:02.445Z,15.43
2019-01-04T08:53:55.215Z,13.83
2019-01-04T08:56:24.953Z,15.07
2019-01-04T08:58:54.262Z,12.83
2019-01-04T09:01:23.591Z,16.20
2019-01-04T09:03:52.919Z,18.23
2019-01-04T09:06:22.292Z,15.77
2019-01-04T09:08:51.630Z,12.80
2019-01-04T09:11:21.029Z,14.00
2019-01-04T09:13:50.455Z,11.83
2019-01-04T09:16:19.750Z,12.80
2019-01-04T09:18:49.117Z,13.70
2019-01-04T09:21:18.726Z,11.00
2019-01-04T09:23:48.041Z,13.00
2019-01-04T09:26:17.459Z,13.00
2019-01-04T09:28:46.835Z,11.03
2019-01-04T09:31:16.206Z,15.23
2019-01-04T09:33:45.556Z,14.97
2019-01-04T09:36:14.870Z,16.67
2019-01-04T09:38:49.982Z,15.57
2019-01-04T09:41:36.034Z,15.90
2019-01-04T09:44:05.839Z,15.00
2019-01-04T09:46:35.270Z,14.30
2019-01-04T09:51:44.128Z,17.07
2019-01-04T09:54:13.584Z,17.73
2019-01-04T09:56:43.057Z,15.43
2019-01-04T09:59:12.560Z,15.47
2019-01-04T10:01:41.935Z,16.13
2019-01-04T10:04:12.394Z,15.77
2019-01-04T10:06:42.558Z,17.90
2019-01-04T10:09:12.210Z,15.23
2019-01-04T10:11:41.715Z,19.83
2019-01-04T10:14:11.272Z,17.35
2019-01-04T10:16:57.341Z,19.42
2019-01-04T10:19:26.833Z,20.17
2019-01-04T10:21:56.396Z,22.10
2019-01-04T10:24:26.133Z,15.67
2019-01-04T10:26:55.904Z,19.07
2019-01-04T10:29:25.363Z,21.90
2019-01-04T10:31:58.327Z,17.73
2019-01-04T10:34:29.151Z,19.33
2019-01-04T10:36:59.486Z,15.23
2019-01-04T10:39:28.935Z,16.30
2019-01-04T10:41:58.450Z,18.90
2019-01-04T10:44:29.048Z,23.00
2019-01-04T10:46:58.853Z,18.90
2019-01-04T10:49:28.437Z,27.13
2019-01-04T10:51:57.939Z,17.67
2019-01-04T10:54:27.482Z,18.53
2019-01-04T10:56:57.053Z,18.43
2019-01-04T10:59:26.566Z,18.07
2019-01-04T11:01:56.115Z,15.47
2019-01-04T11:04:27.010Z,20.37
2019-01-04T11:07:01.048Z,20.97
2019-01-04T11:09:32.896Z,16.83
2019-01-04T11:12:02.644Z,20.70
2019-01-04T11:14:33.204Z,13.73
2019-01-04T11:17:03.192Z,17.10
2019-01-04T11:19:33.679Z,14.93
2019-01-04T11:22:39.638Z,19.80
2019-01-04T11:25:51.963Z,17.10
2019-01-04T11:28:41.580Z,13.80
2019-01-04T11:31:32.896Z,14.50
2019-01-04T11:34:56.879Z,14.67
2019-01-04T11:37:54.152Z,16.13
2019-01-04T11:40:51.661Z,12.10
2019-01-04T11:43:48.361Z,13.27
2019-01-04T11:46:57.116Z,14.93
2019-01-04T11:50:02.124Z,13.37
2019-01-04T11:52:38.339Z,12.47
2019-01-04T11:55:07.848Z,10.57
2019-01-04T11:57:37.324Z,11.63
2019-01-04T12:00:09.353Z,8.07
2019-01-04T12:02:38.880Z,10.47
2019-01-04T12:05:08.939Z,8.00
2019-01-04T12:07:38.418Z,8.73
2019-01-04T12:10:09.083Z,9.13
2019-01-04T12:12:38.598Z,8.97
2019-01-04T12:15:08.316Z,9.17
2019-01-04T12:17:38.064Z,9.40
2019-01-04T12:20:07.987Z,9.17
2019-01-04T12:22:37.422Z,11.87
2019-01-04T12:25:07.267Z,10.23
2019-01-04T12:27:36.705Z,8.27
2019-01-04T12:30:06.787Z,8.80
2019-01-04T12:32:36.487Z,8.87
2019-01-04T12:35:06.072Z,8.20
2019-01-04T12:37:35.555Z,8.73
2019-01-04T12:40:09.210Z,5.63
2019-01-04T12:42:38.676Z,10.80
2019-01-04T12:45:09.311Z,13.23
2019-01-04T12:47:38.893Z,6.27
2019-01-04T12:50:08.624Z,8.63
2019-01-04T12:52:38.096Z,6.50
2019-01-04T12:55:07.763Z,4.67
2019-01-04T12:57:37.148Z,7.20
2019-01-04T13:00:08.516Z,6.17
2019-01-04T13:02:38.458Z,12.30
2019-01-04T13:05:12.359Z,5.97
2019-01-04T13:07:41.778Z,5.10
2019-01-04T13:10:11.249Z,5.77
2019-01-04T13:12:41.003Z,6.10
2019-01-04T13:15:10.476Z,4.43
2019-01-04T13:17:39.880Z,5.70
2019-01-04T13:20:09.455Z,6.43
2019-01-04T13:22:38.912Z,4.70
2019-01-04T13:25:08.456Z,5.97
2019-01-04T13:27:37.969Z,5.93
2019-01-04T13:30:07.744Z,5.30
2019-01-04T13:32:37.204Z,7.60
2019-01-04T13:35:06.840Z,6.23
2019-01-04T13:37:36.360Z,7.03
2019-01-04T13:40:06.753Z,9.27
2019-01-04T13:42:36.494Z,6.27
2019-01-04T13:45:06.744Z,6.47
2019-01-04T13:47:36.368Z,6.07
2019-01-04T13:50:06.195Z,7.20
2019-01-04T13:52:35.716Z,7.17
2019-01-04T13:55:05.121Z,6.73
2019-01-04T13:57:34.825Z,7.10
2019-01-04T14:00:04.909Z,11.83
2019-01-04T14:02:34.324Z,9.57
2019-01-04T14:05:03.804Z,8.97
2019-01-04T14:07:33.309Z,7.83
2019-01-04T14:10:02.805Z,6.83
2019-01-04T14:12:32.362Z,9.23
2019-01-04T14:15:01.777Z,8.20
2019-01-04T14:17:31.252Z,7.40
2019-01-04T14:20:00.898Z,7.83
2019-01-04T14:22:30.380Z,10.60
2019-01-04T14:24:59.867Z,6.83
2019-01-04T14:27:29.350Z,6.80
2019-01-04T14:29:58.803Z,10.07
2019-01-04T14:32:28.283Z,8.10
2019-01-04T14:34:57.748Z,13.40
2019-01-04T14:37:27.214Z,7.57
2019-01-04T14:39:56.702Z,8.20
2019-01-04T14:42:26.188Z,7.50
2019-01-04T14:44:56.042Z,8.00
2019-01-04T14:47:25.697Z,8.33
2019-01-04T14:49:55.433Z,12.37
2019-01-04T14:52:24.948Z,11.17
2019-01-04T14:54:57.163Z,10.80
2019-01-04T14:57:26.633Z,10.27
2019-01-04T14:59:59.476Z,9.37
2019-01-04T15:02:32.843Z,12.63
2019-01-04T15:05:02.297Z,9.00
2019-01-04T15:07:37.277Z,10.37
2019-01-04T15:10:08.896Z,10.27
2019-01-04T15:12:38.374Z,14.43
2019-01-04T15:15:08.136Z,11.83
2019-01-04T15:17:50.911Z,8.83
2019-01-04T15:20:20.506Z,11.70
2019-01-04T15:22:50.144Z,9.33
2019-01-04T15:25:19.684Z,12.43
2019-01-04T15:27:49.171Z,13.40
2019-01-04T15:30:18.723Z,13.10
2019-01-04T15:32:48.632Z,15.33
2019-01-04T15:35:18.078Z,9.70
2019-01-04T15:37:47.480Z,13.07
2019-01-04T15:40:16.932Z,15.20
2019-01-04T15:42:46.881Z,10.90
2019-01-04T15:45:16.384Z,11.63
2019-01-04T15:47:45.940Z,14.00
2019-01-04T15:50:15.404Z,13.03
2019-01-04T15:52:44.879Z,14.93
2019-01-04T15:55:14.503Z,14.77
2019-01-04T15:57:43.979Z,13.07
2019-01-04T16:00:14.058Z,12.43
2019-01-04T16:02:43.720Z,13.10
2019-01-04T16:05:13.436Z,16.40
2019-01-04T16:07:42.983Z,13.13
2019-01-04T16:10:12.543Z,15.23
2019-01-04T16:12:42.093Z,11.97
2019-01-04T16:15:11.576Z,17.20
2019-01-04T16:17:41.189Z,18.10
2019-01-04T16:20:11.661Z,14.63
2019-01-04T16:22:41.135Z,14.87
2019-01-04T16:25:11.067Z,14.87
2019-01-04T16:27:40.556Z,17.70
2019-01-04T16:30:11.511Z,15.67
2019-01-04T16:32:41.373Z,18.10
2019-01-04T16:35:10.731Z,15.37
2019-01-04T16:37:40.179Z,15.57
2019-01-04T16:40:09.774Z,16.83
2019-01-04T16:42:39.267Z,15.20
2019-01-04T16:45:08.919Z,15.37
2019-01-04T16:47:39.481Z,17.73
2019-01-04T16:50:09.344Z,20.53
2019-01-04T16:52:38.725Z,20.03
2019-01-04T16:55:09.090Z,15.73
2019-01-04T16:57:38.523Z,15.17
2019-01-04T17:00:09.516Z,17.03
2019-01-04T17:02:39.259Z,17.63
2019-01-04T17:05:08.726Z,18.37
2019-01-04T17:07:38.213Z,23.30
2019-01-04T17:10:07.835Z,20.37
2019-01-04T17:12:37.320Z,19.30
2019-01-04T17:15:07.059Z,18.20
2019-01-04T17:17:37.071Z,18.97
2019-01-04T17:20:06.964Z,17.17
2019-01-04T17:22:36.725Z,16.60
2019-01-04T17:25:07.306Z,19.23
2019-01-04T17:27:36.837Z,20.17
2019-01-04T17:30:07.830Z,21.97
2019-01-04T17:32:37.271Z,22.30
2019-01-04T17:35:06.937Z,22.10
2019-01-04T17:37:36.627Z,25.25
2019-01-04T17:40:07.856Z,21.63
2019-01-04T17:42:37.447Z,22.50
2019-01-04T17:45:07.259Z,20.50
2019-01-04T17:47:46.356Z,22.27
2019-01-04T17:50:36.683Z,21.23
2019-01-04T17:53:31.453Z,20.80
2019-01-04T17:56:08.031Z,21.27
2019-01-04T17:58:41.499Z,17.90
2019-01-04T18:01:11.058Z,23.27
2019-01-04T18:03:40.441Z,19.60
2019-01-04T18:06:09.824Z,22.30
2019-01-04T18:08:39.283Z,19.33
2019-01-04T18:11:08.996Z,21.30
2019-01-04T18:13:38.423Z,20.60
2019-01-04T18:16:07.725Z,21.93
2019-01-04T18:18:37.145Z,21.90
2019-01-04T18:21:06.655Z,21.60
2019-01-04T18:23:35.966Z,23.73
2019-01-04T18:26:05.622Z,23.93
2019-01-04T18:28:35.048Z,20.27
2019-01-04T18:31:06.173Z,21.43
2019-01-04T18:33:36.206Z,21.17
2019-01-04T18:36:05.892Z,22.30
2019-01-04T18:38:36.067Z,21.63
2019-01-04T18:41:05.505Z,24.27
2019-01-04T18:43:35.218Z,24.77
2019-01-04T18:46:04.909Z,21.70
2019-01-04T18:48:34.756Z,23.47
2019-01-04T18:51:04.383Z,23.30
2019-01-04T18:53:34.519Z,24.90
2019-01-04T18:56:04.397Z,24.67
2019-01-04T18:58:35.676Z,26.20
2019-01-04T19:01:05.063Z,28.13
2019-01-04T19:03:34.470Z,25.57
2019-01-04T19:06:04.135Z,29.43
2019-01-04T19:08:33.965Z,29.33
2019-01-04T19:11:03.715Z,30.33
2019-01-04T19:13:33.495Z,27.87
2019-01-04T19:16:03.119Z,26.27
2019-01-04T19:18:32.939Z,29.07
2019-01-04T19:21:02.315Z,30.40
2019-01-04T19:23:31.666Z,27.60
2019-01-04T19:26:01.018Z,27.53
2019-01-04T19:28:30.395Z,27.27
2019-01-04T19:30:59.819Z,30.27
2019-01-04T19:33:29.166Z,29.80
2019-01-04T19:35:58.621Z,31.93
2019-01-04T19:38:32.380Z,26.50
2019-01-04T19:41:02.739Z,28.10
2019-01-04T19:43:32.841Z,28.70
2019-01-04T19:46:02.743Z,31.00
2019-01-04T19:48:32.345Z,33.17
2019-01-04T19:51:01.806Z,32.27
2019-01-04T19:53:31.124Z,29.27
2019-01-04T19:56:00.469Z,26.90
2019-01-04T19:58:30.092Z,30.23
2019-01-04T20:00:59.443Z,31.63
2019-01-04T20:03:31.922Z,34.67
2019-01-04T20:07:03.330Z,29.37
2019-01-04T20:10:39.121Z,28.43
2019-01-04T20:14:04.770Z,36.00
2019-01-04T20:17:12.311Z,36.17
2019-01-04T20:20:18.778Z,28.20
2019-01-04T20:23:07.328Z,32.20
2019-01-04T20:25:54.859Z,31.90
2019-01-04T20:28:45.857Z,33.80
2019-01-04T20:31:36.550Z,28.20
2019-01-04T20:34:42.119Z,32.40
2019-01-04T20:37:28.859Z,28.80
2019-01-04T20:40:20.031Z,33.17
2019-01-04T20:43:07.182Z,30.23
2019-01-04T20:45:54.013Z,30.33
2019-01-04T20:48:56.596Z,31.10
2019-01-04T20:51:44.116Z,32.73
2019-01-04T20:54:36.069Z,28.53
2019-01-04T20:57:39.514Z,29.07
2019-01-04T21:00:28.837Z,28.33
2019-01-04T21:03:29.704Z,29.50
2019-01-04T21:06:27.367Z,29.33
2019-01-04T21:09:51.836Z,25.80
2019-01-04T21:16:31.330Z,26.63
2019-01-04T21:21:00.585Z,25.93
2019-01-04T21:27:06.970Z,27.03
2019-01-04T21:30:34.463Z,28.37
2019-01-04T21:33:26.987Z,25.70
2019-01-04T21:36:45.761Z,25.27
2019-01-04T21:40:10.483Z,24.70
2019-01-04T21:50:44.267Z,22.13
2019-01-04T21:54:26.332Z,24.13
2019-01-04T21:58:10.308Z,22.00
2019-01-04T22:01:22.660Z,21.50
2019-01-04T22:08:42.734Z,23.63
2019-01-04T22:12:16.721Z,20.77
2019-01-04T22:15:48.999Z,21.90
2019-01-04T22:18:41.025Z,20.80
2019-01-04T22:21:32.237Z,19.53
2019-01-04T22:25:46.211Z,21.57
2019-01-04T22:28:52.823Z,20.27
2019-01-04T22:31:45.535Z,21.80
2019-01-04T22:35:18.032Z,20.43
2019-01-04T22:38:55.373Z,19.87
2019-01-04T22:42:05.021Z,22.77
2019-01-04T22:45:28.735Z,20.97
2019-01-04T22:48:27.445Z,18.57
2019-01-04T22:51:30.088Z,17.80
2019-01-04T22:54:43.283Z,20.23
2019-01-04T22:57:59.125Z,21.53
2019-01-04T23:01:36.200Z,18.17
2019-01-04T23:08:52.634Z,17.40
2019-01-04T23:16:12.197Z,15.57
2019-01-04T23:19:27.813Z,18.80
2019-01-04T23:25:57.892Z,16.53
2019-01-04T23:29:26.492Z,14.70
2019-01-04T23:32:12.540Z,16.50
2019-01-04T23:35:11.037Z,19.43
2019-01-04T23:45:35.662Z,14.10
2019-01-04T23:50:51.337Z,12.17
2019-01-04T23:53:45.209Z,11.70
2019-01-04T23:56:32.717Z,15.67
2019-01-04T23:59:12.773Z,11.40
